createdAt,value
2019-01-06T00:02:19.036Z,6.60
2019-01-06T00:04:49.128Z,6.00
2019-01-06T00:07:31.279Z,6.17
2019-01-06T00:10:07.556Z,6.20
2019-01-06T00:12:40.232Z,6.40
2019-01-06T00:15:26.393Z,5.93
2019-01-06T00:18:12.713Z,6.13
2019-01-06T00:21:01.081Z,6.33
2019-01-06T00:23:47.082Z,5.70
2019-01-06T00:26:17.172Z,5.60
2019-01-06T00:28:50.158Z,5.40
2019-01-06T00:31:29.292Z,5.13
2019-01-06T00:34:15.852Z,4.70
2019-01-06T00:37:02.091Z,6.03
2019-01-06T00:39:32.162Z,5.90
2019-01-06T00:42:05.348Z,5.60
2019-01-06T00:44:41.075Z,5.23
2019-01-06T00:47:17.134Z,5.30
2019-01-06T00:49:47.216Z,5.57
2019-01-06T00:52:20.367Z,5.47
2019-01-06T00:54:53.604Z,5.70
2019-01-06T00:57:26.766Z,5.50
2019-01-06T01:00:14.785Z,5.17
2019-01-06T01:02:57.196Z,5.60
2019-01-06T01:05:27.252Z,5.00
2019-01-06T01:07:57.353Z,5.27
2019-01-06T01:10:30.217Z,5.63
2019-01-06T01:13:16.206Z,5.87
2019-01-06T01:15:54.956Z,6.13
2019-01-06T01:18:31.090Z,5.50
2019-01-06T01:21:01.155Z,6.30
2019-01-06T01:23:42.905Z,5.67
2019-01-06T01:26:15.729Z,6.43
2019-01-06T01:29:01.889Z,6.33
2019-01-06T01:31:34.507Z,6.67
2019-01-06T01:34:07.377Z,7.10
2019-01-06T01:36:46.633Z,6.50
2019-01-06T01:39:16.857Z,7.47
2019-01-06T01:41:46.928Z,7.50
2019-01-06T01:44:17.047Z,7.47
2019-01-06T01:46:50.175Z,7.37
2019-01-06T01:49:23.211Z,8.30
2019-01-06T01:52:09.495Z,8.37
2019-01-06T01:54:51.582Z,8.00
2019-01-06T01:57:21.620Z,8.53
2019-01-06T02:00:06.812Z,7.97
2019-01-06T02:02:39.717Z,9.60
2019-01-06T02:05:25.103Z,8.77
2019-01-06T02:07:55.170Z,8.30
2019-01-06T02:10:34.132Z,7.90
2019-01-06T02:13:12.966Z,8.07
2019-01-06T02:16:01.443Z,8.83
2019-01-06T02:18:31.529Z,8.50
2019-01-06T02:21:01.650Z,7.33
2019-01-06T02:23:47.243Z,9.30
2019-01-06T02:26:20.310Z,8.00
2019-01-06T02:28:50.369Z,7.60
2019-01-06T02:31:36.774Z,8.67
2019-01-06T02:34:22.846Z,10.13
2019-01-06T02:37:08.903Z,9.67
2019-01-06T02:39:44.821Z,8.93
2019-01-06T02:42:14.982Z,9.03
2019-01-06T02:45:01.473Z,9.20
2019-01-06T02:47:37.583Z,8.57
2019-01-06T02:50:21.114Z,8.73
2019-01-06T02:53:07.639Z,8.53
2019-01-06T02:55:52.795Z,9.50
2019-01-06T02:58:34.572Z,8.17
2019-01-06T03:01:13.371Z,9.30
2019-01-06T03:03:52.462Z,9.10
2019-01-06T03:06:22.584Z,8.83
2019-01-06T03:08:55.145Z,8.93
2019-01-06T03:11:30.775Z,9.63
2019-01-06T03:14:06.941Z,8.93
2019-01-06T03:16:39.412Z,9.67
2019-01-06T03:19:14.983Z,9.80
2019-01-06T03:21:48.278Z,9.60
2019-01-06T03:24:27.128Z,10.17
2019-01-06T03:26:57.205Z,9.40
2019-01-06T03:29:27.278Z,9.20
2019-01-06T03:32:15.759Z,10.03
2019-01-06T03:34:48.876Z,11.43
2019-01-06T03:37:24.916Z,10.93
2019-01-06T03:39:54.996Z,12.10
2019-01-06T03:42:30.826Z,11.87
2019-01-06T03:45:12.641Z,10.90
2019-01-06T03:48:01.374Z,11.47
2019-01-06T03:50:47.897Z,11.63
2019-01-06T03:53:34.204Z,11.30
2019-01-06T03:56:21.097Z,11.97
2019-01-06T03:58:53.975Z,11.87
2019-01-06T04:01:26.764Z,13.07
2019-01-06T04:04:02.736Z,13.10
2019-01-06T04:06:38.879Z,12.43
2019-01-06T04:09:11.986Z,12.17
2019-01-06T04:11:50.902Z,11.57
2019-01-06T04:14:39.338Z,12.30
2019-01-06T04:17:21.397Z,13.77
2019-01-06T04:19:57.205Z,12.90
2019-01-06T04:22:42.459Z,12.70
2019-01-06T04:25:12.516Z,12.23
2019-01-06T04:27:51.451Z,12.07
2019-01-06T04:30:33.558Z,12.10
2019-01-06T04:33:03.654Z,12.53
2019-01-06T04:35:39.822Z,12.57
2019-01-06T04:38:15.617Z,11.30
2019-01-06T04:40:57.675Z,11.13
2019-01-06T04:43:44.242Z,12.07
2019-01-06T04:46:23.147Z,11.47
2019-01-06T04:48:53.228Z,11.37
2019-01-06T04:51:35.460Z,10.13
2019-01-06T04:54:05.534Z,11.30
2019-01-06T04:56:51.813Z,10.90
2019-01-06T04:59:21.905Z,11.40
2019-01-06T05:01:54.428Z,11.17
2019-01-06T05:04:27.252Z,11.53
2019-01-06T05:07:13.623Z,10.43
2019-01-06T05:09:59.980Z,10.20
2019-01-06T05:12:46.689Z,10.47
2019-01-06T05:15:19.780Z,10.97
2019-01-06T05:17:49.864Z,11.10
2019-01-06T05:20:36.152Z,11.10
2019-01-06T05:23:06.238Z,11.50
2019-01-06T05:25:36.344Z,11.30
2019-01-06T05:28:06.427Z,13.20
2019-01-06T05:30:42.478Z,11.20
2019-01-06T05:33:18.504Z,11.20
2019-01-06T05:35:54.565Z,11.97
2019-01-06T05:38:36.375Z,13.97
2019-01-06T05:41:09.493Z,13.07
2019-01-06T05:43:39.592Z,13.17
2019-01-06T05:46:25.467Z,14.43
2019-01-06T05:48:55.714Z,13.60
2019-01-06T05:51:31.839Z,14.93
2019-01-06T05:54:18.702Z,14.93
2019-01-06T05:56:48.767Z,14.93
2019-01-06T05:59:18.858Z,15.90
2019-01-06T06:01:48.948Z,16.83
2019-01-06T06:04:35.058Z,16.37
2019-01-06T06:07:23.277Z,16.87
2019-01-06T06:09:53.418Z,16.90
2019-01-06T06:12:29.000Z,17.20
2019-01-06T06:15:07.895Z,16.93
2019-01-06T06:17:43.741Z,17.10
2019-01-06T06:20:26.116Z,15.67
2019-01-06T06:22:59.158Z,16.50
2019-01-06T06:25:38.253Z,15.97
2019-01-06T06:28:11.211Z,14.87
2019-01-06T06:30:41.288Z,15.07
2019-01-06T06:33:14.083Z,15.97
2019-01-06T06:35:50.328Z,16.70
2019-01-06T06:38:20.428Z,17.30
2019-01-06T06:40:50.568Z,17.60
2019-01-06T06:43:23.068Z,15.77
2019-01-06T06:46:02.046Z,16.07
2019-01-06T06:48:48.461Z,15.00
2019-01-06T06:51:21.648Z,15.63
2019-01-06T06:54:06.808Z,15.70
2019-01-06T06:56:53.416Z,16.60
2019-01-06T06:59:39.855Z,16.33
2019-01-06T07:02:32.793Z,17.57
2019-01-06T07:05:08.768Z,18.07
2019-01-06T07:07:55.062Z,17.87
2019-01-06T07:10:37.082Z,17.73
2019-01-06T07:13:23.609Z,17.07
2019-01-06T07:16:06.122Z,16.73
2019-01-06T07:18:42.106Z,16.63
2019-01-06T07:21:28.231Z,17.53
2019-01-06T07:24:03.889Z,18.03
2019-01-06T07:26:50.166Z,18.93
2019-01-06T07:29:20.240Z,16.57
2019-01-06T07:32:06.297Z,17.97
2019-01-06T07:34:36.390Z,18.90
2019-01-06T07:37:06.453Z,18.00
2019-01-06T07:39:45.269Z,17.47
2019-01-06T07:42:33.177Z,17.90
2019-01-06T07:45:12.234Z,17.67
2019-01-06T07:47:44.773Z,17.27
2019-01-06T07:50:26.908Z,18.17
2019-01-06T07:53:00.104Z,18.00
2019-01-06T07:55:46.340Z,18.03
2019-01-06T07:58:22.290Z,16.83
2019-01-06T08:00:52.404Z,18.63
2019-01-06T08:03:28.357Z,19.27
2019-01-06T08:05:58.449Z,18.47
2019-01-06T08:08:28.514Z,18.40
2019-01-06T08:11:07.482Z,18.63
2019-01-06T08:13:54.204Z,18.40
2019-01-06T08:16:30.193Z,18.47
2019-01-06T08:19:00.288Z,18.27
2019-01-06T08:21:42.562Z,18.37
2019-01-06T08:24:24.317Z,17.07
2019-01-06T08:26:54.453Z,16.97
2019-01-06T08:29:39.790Z,17.73
2019-01-06T08:32:09.871Z,17.13
2019-01-06T08:34:56.221Z,17.80
2019-01-06T08:37:35.261Z,16.77
2019-01-06T08:40:14.721Z,17.53
2019-01-06T08:43:01.357Z,15.27
2019-01-06T08:45:31.431Z,16.70
2019-01-06T08:48:13.417Z,16.73
2019-01-06T08:50:52.153Z,14.83
2019-01-06T08:53:34.444Z,15.50
2019-01-06T08:56:04.591Z,15.03
2019-01-06T08:58:44.022Z,14.83
2019-01-06T09:01:14.100Z,14.20
2019-01-06T09:04:00.349Z,15.77
2019-01-06T09:06:45.619Z,14.83
2019-01-06T09:09:32.684Z,15.53
2019-01-06T09:12:05.716Z,15.37
2019-01-06T09:14:38.685Z,15.43
2019-01-06T09:17:11.964Z,14.90
2019-01-06T09:19:50.574Z,16.33
2019-01-06T09:22:29.048Z,15.63
2019-01-06T09:24:59.154Z,14.87
2019-01-06T09:27:44.163Z,15.77
2019-01-06T09:30:30.792Z,16.50
2019-01-06T09:33:03.579Z,15.80
2019-01-06T09:35:45.907Z,16.00
2019-01-06T09:38:32.360Z,15.63
2019-01-06T09:41:20.261Z,15.77
2019-01-06T09:43:55.953Z,15.43
2019-01-06T09:46:28.726Z,15.97
2019-01-06T09:49:07.528Z,17.23
2019-01-06T09:51:53.973Z,16.60
2019-01-06T09:54:40.364Z,17.13
2019-01-06T09:57:19.456Z,16.00
2019-01-06T10:00:05.553Z,17.00
2019-01-06T10:02:53.751Z,16.00
2019-01-06T10:05:39.873Z,17.80
2019-01-06T10:08:12.829Z,16.50
2019-01-06T10:13:25.222Z,17.73
2019-01-06T10:16:11.612Z,16.83
2019-01-06T10:18:47.569Z,17.70
2019-01-06T10:21:33.974Z,16.83
2019-01-06T10:24:04.191Z,16.67
2019-01-06T10:26:34.443Z,17.00
2019-01-06T10:29:04.519Z,16.13
2019-01-06T10:31:37.756Z,15.50
2019-01-06T10:34:16.961Z,16.17
2019-01-06T10:37:05.268Z,15.53
2019-01-06T10:39:38.284Z,17.07
2019-01-06T10:42:25.026Z,16.93
2019-01-06T10:44:58.023Z,15.93
2019-01-06T10:47:37.090Z,17.20
2019-01-06T10:50:26.203Z,16.33
2019-01-06T10:53:02.332Z,16.70
2019-01-06T10:55:47.477Z,16.77
2019-01-06T10:58:17.664Z,17.90
2019-01-06T11:01:03.803Z,16.60
2019-01-06T11:03:51.012Z,15.43
2019-01-06T11:06:24.264Z,15.50
2019-01-06T11:08:57.105Z,14.87
2019-01-06T11:11:36.503Z,15.97
2019-01-06T11:14:12.456Z,15.13
2019-01-06T11:16:42.577Z,14.93
2019-01-06T11:19:12.775Z,14.87
2019-01-06T11:21:58.369Z,15.97
2019-01-06T11:24:37.959Z,15.23
2019-01-06T11:27:24.635Z,14.07
2019-01-06T11:29:54.736Z,13.97
2019-01-06T11:32:30.633Z,15.37
2019-01-06T11:35:03.407Z,15.27
2019-01-06T11:37:33.509Z,15.03
2019-01-06T11:40:20.182Z,14.93
2019-01-06T11:45:40.332Z,16.27
2019-01-06T11:48:16.155Z,14.17
2019-01-06T11:53:39.718Z,14.13
2019-01-06T11:56:09.804Z,13.33
2019-01-06T11:58:42.884Z,13.60
2019-01-06T12:01:16.140Z,13.47
2019-01-06T12:03:46.229Z,13.63
2019-01-06T12:06:16.306Z,13.53
2019-01-06T12:08:49.404Z,14.53
2019-01-06T12:11:20.990Z,13.97
2019-01-06T12:13:53.774Z,15.13
2019-01-06T12:16:23.870Z,13.97
2019-01-06T12:19:02.949Z,13.40
2019-01-06T12:21:35.764Z,13.73
2019-01-06T12:24:22.204Z,14.13
2019-01-06T12:26:52.346Z,14.03
2019-01-06T12:29:22.453Z,13.77
2019-01-06T12:32:08.448Z,13.97
2019-01-06T12:34:56.656Z,11.93
2019-01-06T12:37:43.492Z,12.50
2019-01-06T12:40:30.074Z,11.37
2019-01-06T12:43:08.623Z,11.90
2019-01-06T12:45:55.154Z,11.87
2019-01-06T12:48:31.071Z,12.00
2019-01-06T12:51:10.036Z,12.03
2019-01-06T12:53:49.148Z,13.40
2019-01-06T12:56:34.194Z,12.97
2019-01-06T12:59:20.822Z,13.50
2019-01-06T13:02:06.754Z,14.20
2019-01-06T13:04:42.755Z,13.73
2019-01-06T13:07:15.431Z,13.00
2019-01-06T13:10:01.761Z,13.50
2019-01-06T13:12:37.781Z,13.07
2019-01-06T13:15:08.443Z,14.07
2019-01-06T13:17:38.515Z,12.47
2019-01-06T13:20:11.799Z,13.07
2019-01-06T13:22:41.982Z,14.03
2019-01-06T13:25:12.094Z,13.13
2019-01-06T13:27:48.366Z,12.80
2019-01-06T13:30:18.509Z,12.83
2019-01-06T13:32:54.473Z,13.13
2019-01-06T13:35:42.558Z,12.43
2019-01-06T13:38:28.822Z,12.00
2019-01-06T13:41:15.502Z,11.73
2019-01-06T13:43:51.684Z,11.70
2019-01-06T13:46:38.172Z,12.03
2019-01-06T13:49:13.791Z,10.60
2019-01-06T13:51:58.951Z,12.60
2019-01-06T13:54:30.355Z,12.37
2019-01-06T13:57:17.059Z,11.63
2019-01-06T13:59:47.138Z,12.47
2019-01-06T14:02:19.891Z,11.47
2019-01-06T14:04:50.077Z,12.40
2019-01-06T14:07:29.262Z,12.30
2019-01-06T14:10:08.251Z,12.77
2019-01-06T14:12:38.346Z,12.20
2019-01-06T14:15:11.025Z,12.23
2019-01-06T14:17:41.148Z,13.57
2019-01-06T14:20:16.728Z,13.53
2019-01-06T14:22:43.178Z,13.43
2019-01-06T14:25:16.487Z,13.57
2019-01-06T14:27:49.591Z,12.57
2019-01-06T14:30:35.047Z,14.20
2019-01-06T14:33:10.976Z,12.77
2019-01-06T14:35:51.338Z,10.93
2019-01-06T14:38:33.399Z,10.80
2019-01-06T14:41:09.148Z,11.63
2019-01-06T14:43:55.877Z,11.27
2019-01-06T14:46:28.843Z,13.10
2019-01-06T14:49:17.348Z,13.70
2019-01-06T14:51:47.462Z,13.47
2019-01-06T14:54:20.369Z,14.27
2019-01-06T14:57:02.335Z,14.60
2019-01-06T14:59:38.098Z,15.43
2019-01-06T15:02:10.861Z,16.10
2019-01-06T15:04:49.704Z,14.70
2019-01-06T15:07:25.465Z,14.43
2019-01-06T15:10:10.308Z,13.17
2019-01-06T15:12:49.229Z,13.97
2019-01-06T15:15:34.216Z,15.47
2019-01-06T15:18:22.712Z,14.23
2019-01-06T15:21:10.913Z,15.30
2019-01-06T15:23:46.881Z,15.50
2019-01-06T15:26:28.963Z,14.50
2019-01-06T15:29:15.961Z,15.10
2019-01-06T15:31:57.833Z,16.20
2019-01-06T15:34:39.995Z,15.83
2019-01-06T15:37:10.072Z,14.80
2019-01-06T15:39:52.654Z,14.00
2019-01-06T15:42:25.517Z,14.83
2019-01-06T15:44:58.833Z,12.57
2019-01-06T15:47:41.315Z,14.57
2019-01-06T15:50:17.243Z,14.27
2019-01-06T15:52:56.180Z,11.70
2019-01-06T15:55:38.023Z,11.57
2019-01-06T15:58:24.286Z,11.47
2019-01-06T16:00:54.425Z,12.43
2019-01-06T16:03:41.013Z,21.27
2019-01-06T16:06:11.133Z,13.80
2019-01-06T16:08:57.671Z,11.63
2019-01-06T16:11:39.851Z,12.07
2019-01-06T16:14:25.143Z,11.60
2019-01-06T16:17:11.608Z,12.07
2019-01-06T16:19:44.440Z,11.90
2019-01-06T16:22:30.859Z,11.77
2019-01-06T16:25:01.100Z,10.77
2019-01-06T16:27:49.754Z,12.43
2019-01-06T16:30:25.888Z,12.20
2019-01-06T16:33:12.353Z,12.23
2019-01-06T16:35:45.182Z,12.23
2019-01-06T16:38:31.642Z,13.43
2019-01-06T16:41:04.513Z,14.93
2019-01-06T16:43:40.391Z,14.73
2019-01-06T16:46:16.133Z,14.87
2019-01-06T16:48:51.963Z,14.30
2019-01-06T16:51:27.658Z,14.83
2019-01-06T16:54:06.889Z,14.00
2019-01-06T16:56:39.426Z,14.00
2019-01-06T16:59:10.106Z,13.63
2019-01-06T17:01:42.968Z,14.30
2019-01-06T17:04:18.585Z,14.17
2019-01-06T17:06:48.813Z,14.70
2019-01-06T17:09:18.934Z,14.57
2019-01-06T17:11:51.461Z,14.13
2019-01-06T17:14:24.615Z,13.30
2019-01-06T17:16:55.303Z,14.20
2019-01-06T17:19:25.384Z,14.03
2019-01-06T17:22:11.380Z,14.57
2019-01-06T17:24:57.794Z,15.30
2019-01-06T17:27:43.266Z,14.80
2019-01-06T17:30:16.139Z,15.00
2019-01-06T17:33:01.247Z,15.30
2019-01-06T17:35:40.504Z,15.57
2019-01-06T17:38:22.709Z,15.73
2019-01-06T17:41:01.726Z,16.10
2019-01-06T17:43:37.818Z,16.70
2019-01-06T17:46:08.000Z,15.43
2019-01-06T17:48:44.369Z,15.13
2019-01-06T17:51:14.553Z,16.80
2019-01-06T17:53:44.734Z,17.40
2019-01-06T17:56:14.887Z,16.53
2019-01-06T17:58:50.712Z,15.97
2019-01-06T18:01:35.711Z,16.03
2019-01-06T18:04:06.213Z,15.60
2019-01-06T18:06:48.298Z,16.10
2019-01-06T18:09:24.472Z,16.07
2019-01-06T18:11:57.067Z,16.30
2019-01-06T18:14:42.524Z,15.87
2019-01-06T18:17:28.767Z,16.53
2019-01-06T18:20:15.337Z,16.07
2019-01-06T18:22:57.602Z,16.27
2019-01-06T18:25:33.245Z,17.03
2019-01-06T18:28:18.727Z,15.20
2019-01-06T18:31:00.634Z,15.90
2019-01-06T18:33:30.705Z,16.50
2019-01-06T18:36:06.838Z,16.10
2019-01-06T18:38:43.180Z,15.73
2019-01-06T18:41:16.035Z,15.23
2019-01-06T18:43:48.833Z,15.37
2019-01-06T18:46:19.108Z,15.93
2019-01-06T18:48:52.176Z,16.00
2019-01-06T18:51:28.248Z,15.83
2019-01-06T18:54:15.015Z,17.07
2019-01-06T18:57:03.218Z,21.70
2019-01-06T18:59:49.499Z,17.73
2019-01-06T19:02:19.620Z,16.13
2019-01-06T19:04:52.367Z,16.30
2019-01-06T19:07:39.076Z,15.77
2019-01-06T19:10:25.762Z,17.27
2019-01-06T19:13:12.152Z,16.10
2019-01-06T19:15:51.122Z,15.37
2019-01-06T19:18:39.421Z,16.33
2019-01-06T19:21:15.246Z,17.27
2019-01-06T19:24:01.276Z,17.70
2019-01-06T19:26:31.485Z,18.10
2019-01-06T19:29:01.588Z,19.60
2019-01-06T19:31:48.143Z,18.17
2019-01-06T19:34:36.725Z,17.40
2019-01-06T19:37:18.896Z,16.70
2019-01-06T19:39:49.083Z,18.07
2019-01-06T19:42:35.341Z,18.23
2019-01-06T19:45:24.156Z,18.17
2019-01-06T19:48:06.162Z,17.27
2019-01-06T19:50:54.598Z,17.50
2019-01-06T19:53:36.487Z,17.27
2019-01-06T19:56:24.855Z,17.33
2019-01-06T19:59:03.603Z,16.37
2019-01-06T20:01:46.156Z,20.00
2019-01-06T20:04:22.224Z,18.40
2019-01-06T20:07:04.801Z,18.30
2019-01-06T20:09:51.138Z,18.97
2019-01-06T20:12:27.422Z,18.17
2019-01-06T20:15:16.125Z,18.93
2019-01-06T20:17:49.315Z,20.03
2019-01-06T20:20:22.424Z,19.73
2019-01-06T20:23:08.549Z,20.17
2019-01-06T20:25:57.078Z,19.60
2019-01-06T20:28:29.858Z,19.33
2019-01-06T20:31:12.308Z,19.87
2019-01-06T20:33:54.307Z,19.93
2019-01-06T20:36:24.427Z,20.03
2019-01-06T20:39:03.638Z,19.87
2019-01-06T20:41:48.479Z,19.53
2019-01-06T20:44:18.576Z,19.30
2019-01-06T20:47:05.006Z,18.90
2019-01-06T20:49:51.889Z,20.77
2019-01-06T20:52:41.849Z,20.33
2019-01-06T20:55:26.740Z,18.70
2019-01-06T20:58:13.403Z,21.43
2019-01-06T21:00:49.683Z,21.33
2019-01-06T21:03:37.156Z,22.07
2019-01-06T21:06:22.850Z,20.80
2019-01-06T21:09:08.884Z,21.93
2019-01-06T21:11:50.862Z,20.43
2019-01-06T21:14:23.746Z,21.77
2019-01-06T21:16:53.838Z,22.67
2019-01-06T21:19:26.561Z,22.87
2019-01-06T21:22:12.662Z,22.70
2019-01-06T21:24:54.846Z,22.73
2019-01-06T21:27:41.547Z,23.23
2019-01-06T21:30:11.784Z,22.67
2019-01-06T21:32:57.182Z,24.00
2019-01-06T21:35:43.564Z,25.17
2019-01-06T21:38:13.671Z,24.00
2019-01-06T21:40:59.723Z,23.17
2019-01-06T21:43:46.237Z,23.87
2019-01-06T21:46:32.985Z,23.70
2019-01-06T21:49:19.300Z,24.00
2019-01-06T21:52:01.632Z,23.73
2019-01-06T21:54:48.121Z,26.73
2019-01-06T21:57:33.195Z,26.20
2019-01-06T22:00:12.126Z,25.60
2019-01-06T22:02:44.995Z,25.17
2019-01-06T22:05:31.103Z,24.00
2019-01-06T22:08:01.159Z,25.83
2019-01-06T22:10:47.382Z,25.60
2019-01-06T22:13:17.435Z,24.83
2019-01-06T22:15:50.355Z,25.97
2019-01-06T22:18:36.743Z,24.90
2019-01-06T22:21:07.022Z,26.23
2019-01-06T22:23:49.313Z,29.70
2019-01-06T22:26:25.427Z,26.97
2019-01-06T22:28:55.530Z,27.10
2019-01-06T22:31:43.725Z,27.07
2019-01-06T22:34:25.760Z,27.30
2019-01-06T22:37:07.433Z,27.80
2019-01-06T22:39:46.320Z,27.27
2019-01-06T22:42:19.434Z,27.33
2019-01-06T22:44:58.280Z,27.77
2019-01-06T22:47:28.436Z,28.47
2019-01-06T22:50:01.493Z,28.10
2019-01-06T22:52:37.731Z,27.50
2019-01-06T22:55:16.885Z,26.40
2019-01-06T22:58:03.497Z,28.43
2019-01-06T23:00:37.019Z,29.23
2019-01-06T23:03:16.279Z,30.00
2019-01-06T23:06:02.504Z,28.37
2019-01-06T23:08:38.739Z,27.40
2019-01-06T23:11:23.793Z,28.73
2019-01-06T23:14:06.046Z,29.33
2019-01-06T23:16:36.103Z,28.97
2019-01-06T23:19:22.858Z,30.77
2019-01-06T23:22:08.073Z,31.70
2019-01-06T23:24:50.345Z,30.37
2019-01-06T23:27:20.390Z,29.90
2019-01-06T23:30:06.984Z,29.87
2019-01-06T23:32:49.231Z,29.37
2019-01-06T23:35:24.842Z,27.73
2019-01-06T23:38:06.677Z,29.33
2019-01-06T23:40:36.781Z,31.63
2019-01-06T23:43:23.233Z,30.70
2019-01-06T23:45:59.287Z,30.90
2019-01-06T23:48:35.317Z,29.07
2019-01-06T23:51:05.502Z,31.43
2019-01-06T23:53:53.680Z,30.10
2019-01-06T23:56:29.680Z,31.67
2019-01-06T23:58:59.739Z,32.67
